sensor_id;sensor_type;location;lat;lon;timestamp;pressure;altitude;pressure_sealevel;temperature;humidity
70302;BME280;57706;56.326;43.882;2022-10-20T00:01:06;100106.13;;;6.82;80.95
70302;BME280;57706;56.326;43.882;2022-10-20T00:03:32;100104.19;;;6.84;81.18
70302;BME280;57706;56.326;43.882;2022-10-20T00:06:16;100107.50;;;6.86;81.23
70302;BME280;57706;56.326;43.882;2022-10-20T00:08:43;100110.78;;;6.88;81.20
70302;BME280;57706;56.326;43.882;2022-10-20T00:11:10;100115.69;;;6.92;80.96
70302;BME280;57706;56.326;43.882;2022-10-20T00:13:37;100113.38;;;6.88;80.82
70302;BME280;57706;56.326;43.882;2022-10-20T00:16:03;100107.50;;;6.86;80.91
70302;BME280;57706;56.326;43.882;2022-10-20T00:18:30;100111.88;;;6.86;80.96
70302;BME280;57706;56.326;43.882;2022-10-20T00:20:56;100116.31;;;6.85;80.83
70302;BME280;57706;56.326;43.882;2022-10-20T00:23:22;100118.22;;;6.83;80.90
70302;BME280;57706;56.326;43.882;2022-10-20T00:25:48;100122.47;;;6.84;81.01
70302;BME280;57706;56.326;43.882;2022-10-20T00:28:14;100127.56;;;6.86;81.09
70302;BME280;57706;56.326;43.882;2022-10-20T00:30:40;100121.53;;;6.85;81.01
70302;BME280;57706;56.326;43.882;2022-10-20T00:33:05;100124.41;;;6.82;80.84
70302;BME280;57706;56.326;43.882;2022-10-20T00:35:32;100127.19;;;6.81;80.93
70302;BME280;57706;56.326;43.882;2022-10-20T00:38:01;100126.47;;;6.79;80.85
70302;BME280;57706;56.326;43.882;2022-10-20T00:40:27;100138.03;;;6.76;80.93
70302;BME280;57706;56.326;43.882;2022-10-20T00:42:53;100140.66;;;6.76;81.13
70302;BME280;57706;56.326;43.882;2022-10-20T00:45:20;100129.16;;;6.69;80.96
70302;BME280;57706;56.326;43.882;2022-10-20T00:47:49;100131.38;;;6.64;81.07
70302;BME280;57706;56.326;43.882;2022-10-20T00:50:30;100130.97;;;6.58;81.15
70302;BME280;57706;56.326;43.882;2022-10-20T00:52:58;100142.00;;;6.52;81.29
70302;BME280;57706;56.326;43.882;2022-10-20T00:55:28;100134.59;;;6.47;81.45
70302;BME280;57706;56.326;43.882;2022-10-20T00:57:56;100145.28;;;6.44;81.63
70302;BME280;57706;56.326;43.882;2022-10-20T01:00:23;100147.47;;;6.49;81.51
70302;BME280;57706;56.326;43.882;2022-10-20T01:02:55;100152.69;;;6.49;81.44
70302;BME280;57706;56.326;43.882;2022-10-20T01:05:23;100150.75;;;6.51;81.56
70302;BME280;57706;56.326;43.882;2022-10-20T01:07:48;100153.78;;;6.56;81.46
70302;BME280;57706;56.326;43.882;2022-10-20T01:10:15;100157.91;;;6.59;81.52
70302;BME280;57706;56.326;43.882;2022-10-20T01:13:02;100153.59;;;6.68;81.44
70302;BME280;57706;56.326;43.882;2022-10-20T01:18:27;100155.09;;;6.80;80.87
70302;BME280;57706;56.326;43.882;2022-10-20T01:22:20;100162.50;;;6.85;80.62
70302;BME280;57706;56.326;43.882;2022-10-20T01:24:51;100160.31;;;6.80;80.18
70302;BME280;57706;56.326;43.882;2022-10-20T01:27:27;100164.34;;;6.65;80.94
70302;BME280;57706;56.326;43.882;2022-10-20T01:30:18;100155.84;;;6.53;80.77
70302;BME280;57706;56.326;43.882;2022-10-20T01:33:04;100164.03;;;6.20;81.24
70302;BME280;57706;56.326;43.882;2022-10-20T01:35:42;100161.84;;;6.05;81.83
70302;BME280;57706;56.326;43.882;2022-10-20T01:40:48;100174.44;;;6.00;82.61
70302;BME280;57706;56.326;43.882;2022-10-20T01:43:18;100174.59;;;6.09;82.58
70302;BME280;57706;56.326;43.882;2022-10-20T01:45:47;100183.28;;;6.19;82.17
70302;BME280;57706;56.326;43.882;2022-10-20T01:48:17;100178.44;;;6.24;82.13
70302;BME280;57706;56.326;43.882;2022-10-20T01:50:45;100188.03;;;6.33;82.03
70302;BME280;57706;56.326;43.882;2022-10-20T01:53:12;100187.50;;;6.40;81.54
70302;BME280;57706;56.326;43.882;2022-10-20T01:55:38;100182.69;;;6.45;81.50
70302;BME280;57706;56.326;43.882;2022-10-20T02:00:36;100191.97;;;6.57;80.89
70302;BME280;57706;56.326;43.882;2022-10-20T02:13:47;100212.97;;;6.75;79.68
70302;BME280;57706;56.326;43.882;2022-10-20T02:16:19;100208.59;;;6.66;80.11
70302;BME280;57706;56.326;43.882;2022-10-20T02:18:45;100216.03;;;6.71;80.32
70302;BME280;57706;56.326;43.882;2022-10-20T02:21:12;100213.09;;;6.74;80.28
70302;BME280;57706;56.326;43.882;2022-10-20T02:23:39;100223.19;;;6.69;80.01
70302;BME280;57706;56.326;43.882;2022-10-20T02:26:13;100217.25;;;6.67;80.32
70302;BME280;57706;56.326;43.882;2022-10-20T02:28:40;100217.78;;;6.70;80.08
70302;BME280;57706;56.326;43.882;2022-10-20T02:31:07;100218.34;;;6.74;80.01
70302;BME280;57706;56.326;43.882;2022-10-20T02:33:34;100223.28;;;6.77;80.01
70302;BME280;57706;56.326;43.882;2022-10-20T02:36:03;100228.53;;;6.77;79.93
70302;BME280;57706;56.326;43.882;2022-10-20T02:38:30;100221.91;;;6.73;79.56
70302;BME280;57706;56.326;43.882;2022-10-20T02:40:55;100230.72;;;6.72;79.82
70302;BME280;57706;56.326;43.882;2022-10-20T02:43:21;100233.47;;;6.70;79.67
70302;BME280;57706;56.326;43.882;2022-10-20T02:45:47;100236.25;;;6.69;79.24
70302;BME280;57706;56.326;43.882;2022-10-20T02:48:13;100234.56;;;6.68;79.28
70302;BME280;57706;56.326;43.882;2022-10-20T02:50:38;100235.41;;;6.68;79.34
70302;BME280;57706;56.326;43.882;2022-10-20T02:53:05;100228.13;;;6.62;78.93
70302;BME280;57706;56.326;43.882;2022-10-20T02:55:30;100238.59;;;6.52;79.08
70302;BME280;57706;56.326;43.882;2022-10-20T02:57:56;100229.69;;;6.45;79.02
70302;BME280;57706;56.326;43.882;2022-10-20T03:00:22;100229.53;;;6.37;79.13
70302;BME280;57706;56.326;43.882;2022-10-20T03:02:48;100229.28;;;6.20;79.71
70302;BME280;57706;56.326;43.882;2022-10-20T03:05:16;100236.09;;;6.01;79.99
70302;BME280;57706;56.326;43.882;2022-10-20T03:07:43;100235.13;;;5.83;80.41
70302;BME280;57706;56.326;43.882;2022-10-20T03:10:09;100236.06;;;5.62;80.96
70302;BME280;57706;56.326;43.882;2022-10-20T03:12:34;100240.16;;;5.55;81.81
70302;BME280;57706;56.326;43.882;2022-10-20T03:15:00;100239.88;;;5.58;81.86
70302;BME280;57706;56.326;43.882;2022-10-20T03:17:26;100229.03;;;5.53;82.16
70302;BME280;57706;56.326;43.882;2022-10-20T03:19:51;100238.38;;;5.65;82.25
70302;BME280;57706;56.326;43.882;2022-10-20T03:22:17;100241.97;;;5.74;81.69
70302;BME280;57706;56.326;43.882;2022-10-20T03:24:43;100243.63;;;5.85;81.52
70302;BME280;57706;56.326;43.882;2022-10-20T03:27:09;100252.16;;;5.97;80.93
70302;BME280;57706;56.326;43.882;2022-10-20T03:29:35;100252.19;;;6.06;79.83
70302;BME280;57706;56.326;43.882;2022-10-20T03:32:18;100254.94;;;6.15;79.54
70302;BME280;57706;56.326;43.882;2022-10-20T03:34:44;100262.78;;;6.25;79.30
70302;BME280;57706;56.326;43.882;2022-10-20T03:37:10;100261.00;;;6.25;79.04
70302;BME280;57706;56.326;43.882;2022-10-20T03:39:36;100270.88;;;6.31;78.98
70302;BME280;57706;56.326;43.882;2022-10-20T03:42:02;100272.53;;;6.32;78.83
70302;BME280;57706;56.326;43.882;2022-10-20T03:44:27;100274.72;;;6.37;79.01
70302;BME280;57706;56.326;43.882;2022-10-20T03:46:53;100276.66;;;6.45;78.85
70302;BME280;57706;56.326;43.882;2022-10-20T03:49:19;100278.88;;;6.50;78.44
70302;BME280;57706;56.326;43.882;2022-10-20T03:51:45;100286.53;;;6.51;78.26
70302;BME280;57706;56.326;43.882;2022-10-20T03:54:11;100281.88;;;6.55;78.00
70302;BME280;57706;56.326;43.882;2022-10-20T03:56:36;100291.50;;;6.54;77.70
70302;BME280;57706;56.326;43.882;2022-10-20T03:59:02;100296.72;;;6.54;77.57
70302;BME280;57706;56.326;43.882;2022-10-20T04:01:30;100289.56;;;6.56;77.69
70302;BME280;57706;56.326;43.882;2022-10-20T04:03:57;100294.13;;;6.54;77.83
70302;BME280;57706;56.326;43.882;2022-10-20T04:06:23;100293.44;;;6.52;77.94
70302;BME280;57706;56.326;43.882;2022-10-20T04:08:48;100294.00;;;6.56;78.06
70302;BME280;57706;56.326;43.882;2022-10-20T04:11:14;100301.41;;;6.60;77.96
70302;BME280;57706;56.326;43.882;2022-10-20T04:13:40;100301.66;;;6.57;77.72
70302;BME280;57706;56.326;43.882;2022-10-20T04:16:06;100312.25;;;6.56;77.89
70302;BME280;57706;56.326;43.882;2022-10-20T04:18:32;100314.03;;;6.55;77.87
70302;BME280;57706;56.326;43.882;2022-10-20T04:20:58;100313.06;;;6.46;78.17
70302;BME280;57706;56.326;43.882;2022-10-20T04:23:24;100318.72;;;6.52;77.75
70302;BME280;57706;56.326;43.882;2022-10-20T04:25:50;100317.31;;;6.57;77.74
70302;BME280;57706;56.326;43.882;2022-10-20T04:28:18;100325.84;;;6.59;77.78
70302;BME280;57706;56.326;43.882;2022-10-20T04:30:45;100328.31;;;6.61;78.07
70302;BME280;57706;56.326;43.882;2022-10-20T04:33:12;100327.63;;;6.49;78.06
70302;BME280;57706;56.326;43.882;2022-10-20T04:36:01;100331.50;;;6.45;78.13
70302;BME280;57706;56.326;43.882;2022-10-20T04:38:29;100332.47;;;6.44;78.02
70302;BME280;57706;56.326;43.882;2022-10-20T04:40:59;100331.91;;;6.40;78.32
70302;BME280;57706;56.326;43.882;2022-10-20T04:43:26;100344.41;;;6.37;78.21
70302;BME280;57706;56.326;43.882;2022-10-20T04:46:10;100348.25;;;6.32;78.62
70302;BME280;57706;56.326;43.882;2022-10-20T04:48:36;100350.59;;;6.36;78.51
70302;BME280;57706;56.326;43.882;2022-10-20T04:51:08;100351.28;;;6.38;78.21
70302;BME280;57706;56.326;43.882;2022-10-20T04:53:53;100349.50;;;6.48;77.95
70302;BME280;57706;56.326;43.882;2022-10-20T04:56:20;100353.06;;;6.67;77.64
70302;BME280;57706;56.326;43.882;2022-10-20T04:58:54;100349.34;;;6.79;77.15
70302;BME280;57706;56.326;43.882;2022-10-20T05:01:22;100357.59;;;6.94;76.73
70302;BME280;57706;56.326;43.882;2022-10-20T05:03:48;100362.38;;;6.99;75.88
70302;BME280;57706;56.326;43.882;2022-10-20T05:06:19;100364.19;;;6.98;75.90
70302;BME280;57706;56.326;43.882;2022-10-20T05:08:48;100365.16;;;6.97;76.12
70302;BME280;57706;56.326;43.882;2022-10-20T05:11:17;100369.13;;;6.92;75.80
70302;BME280;57706;56.326;43.882;2022-10-20T05:13:43;100368.75;;;6.86;76.23
70302;BME280;57706;56.326;43.882;2022-10-20T05:16:10;100377.00;;;6.82;76.17
70302;BME280;57706;56.326;43.882;2022-10-20T05:18:37;100380.44;;;6.72;76.74
70302;BME280;57706;56.326;43.882;2022-10-20T05:21:12;100380.56;;;6.71;76.56
70302;BME280;57706;56.326;43.882;2022-10-20T05:23:39;100375.91;;;6.74;76.47
70302;BME280;57706;56.326;43.882;2022-10-20T05:26:07;100377.81;;;6.72;76.37
70302;BME280;57706;56.326;43.882;2022-10-20T05:28:33;100382.34;;;6.80;76.15
70302;BME280;57706;56.326;43.882;2022-10-20T05:31:01;100385.50;;;6.74;76.54
70302;BME280;57706;56.326;43.882;2022-10-20T05:33:27;100392.94;;;6.79;76.37
70302;BME280;57706;56.326;43.882;2022-10-20T05:35:53;100388.94;;;6.84;76.22
70302;BME280;57706;56.326;43.882;2022-10-20T05:38:19;100393.47;;;6.82;76.11
70302;BME280;57706;56.326;43.882;2022-10-20T05:40:44;100399.81;;;6.89;75.96
70302;BME280;57706;56.326;43.882;2022-10-20T05:43:10;100396.22;;;6.91;75.85
70302;BME280;57706;56.326;43.882;2022-10-20T05:45:36;100400.63;;;7.00;75.48
70302;BME280;57706;56.326;43.882;2022-10-20T05:48:02;100401.28;;;7.22;74.83
70302;BME280;57706;56.326;43.882;2022-10-20T05:50:27;100395.91;;;7.33;74.23
70302;BME280;57706;56.326;43.882;2022-10-20T05:52:53;100399.75;;;7.39;73.69
70302;BME280;57706;56.326;43.882;2022-10-20T05:55:38;100398.06;;;7.48;73.43
70302;BME280;57706;56.326;43.882;2022-10-20T05:58:03;100402.84;;;7.62;73.05
70302;BME280;57706;56.326;43.882;2022-10-20T06:00:29;100397.44;;;7.74;72.51
70302;BME280;57706;56.326;43.882;2022-10-20T06:03:06;100403.72;;;7.91;71.77
70302;BME280;57706;56.326;43.882;2022-10-20T06:05:31;100405.94;;;7.85;70.94
70302;BME280;57706;56.326;43.882;2022-10-20T06:07:57;100404.53;;;7.91;70.64
70302;BME280;57706;56.326;43.882;2022-10-20T06:10:23;100406.16;;;7.92;69.74
70302;BME280;57706;56.326;43.882;2022-10-20T06:12:49;100403.38;;;8.04;69.37
70302;BME280;57706;56.326;43.882;2022-10-20T06:15:15;100410.22;;;8.15;69.27
70302;BME280;57706;56.326;43.882;2022-10-20T06:17:41;100410.88;;;8.17;69.04
70302;BME280;57706;56.326;43.882;2022-10-20T06:20:07;100410.25;;;8.05;69.44
70302;BME280;57706;56.326;43.882;2022-10-20T06:22:32;100408.63;;;8.04;69.42
70302;BME280;57706;56.326;43.882;2022-10-20T06:24:58;100404.34;;;8.03;68.96
70302;BME280;57706;56.326;43.882;2022-10-20T06:27:24;100411.50;;;8.01;69.22
70302;BME280;57706;56.326;43.882;2022-10-20T06:29:50;100408.88;;;8.01;69.42
70302;BME280;57706;56.326;43.882;2022-10-20T06:32:17;100408.63;;;8.04;69.26
70302;BME280;57706;56.326;43.882;2022-10-20T06:34:42;100413.97;;;8.02;69.10
70302;BME280;57706;56.326;43.882;2022-10-20T06:37:09;100417.16;;;7.96;69.25
70302;BME280;57706;56.326;43.882;2022-10-20T06:39:35;100423.25;;;7.96;69.32
70302;BME280;57706;56.326;43.882;2022-10-20T06:42:01;100417.50;;;7.83;69.20
70302;BME280;57706;56.326;43.882;2022-10-20T06:44:30;100423.06;;;7.70;70.12
70302;BME280;57706;56.326;43.882;2022-10-20T06:46:56;100423.13;;;7.88;70.08
70302;BME280;57706;56.326;43.882;2022-10-20T06:49:22;100425.66;;;8.08;69.29
70302;BME280;57706;56.326;43.882;2022-10-20T06:51:47;100424.88;;;8.25;68.06
70302;BME280;57706;56.326;43.882;2022-10-20T06:54:13;100417.91;;;8.44;67.33
70302;BME280;57706;56.326;43.882;2022-10-20T06:56:40;100422.59;;;8.87;66.34
70302;BME280;57706;56.326;43.882;2022-10-20T06:59:06;100417.19;;;8.70;65.94
70302;BME280;57706;56.326;43.882;2022-10-20T07:01:34;100424.00;;;8.63;64.84
70302;BME280;57706;56.326;43.882;2022-10-20T07:04:06;100424.84;;;8.63;64.94
70302;BME280;57706;56.326;43.882;2022-10-20T07:06:38;100423.94;;;8.45;64.96
70302;BME280;57706;56.326;43.882;2022-10-20T07:09:06;100427.94;;;8.49;64.86
70302;BME280;57706;56.326;43.882;2022-10-20T07:11:33;100430.16;;;8.44;64.64
70302;BME280;57706;56.326;43.882;2022-10-20T07:14:00;100435.38;;;8.53;64.63
70302;BME280;57706;56.326;43.882;2022-10-20T07:16:29;100426.00;;;8.51;64.24
70302;BME280;57706;56.326;43.882;2022-10-20T07:18:55;100430.72;;;8.84;63.38
70302;BME280;57706;56.326;43.882;2022-10-20T07:21:24;100424.38;;;9.04;62.34
70302;BME280;57706;56.326;43.882;2022-10-20T07:24:12;100432.94;;;9.33;61.12
70302;BME280;57706;56.326;43.882;2022-10-20T07:26:40;100430.50;;;9.93;59.88
70302;BME280;57706;56.326;43.882;2022-10-20T07:29:06;100436.16;;;11.49;54.93
70302;BME280;57706;56.326;43.882;2022-10-20T07:31:50;100427.97;;;17.19;43.09
70302;BME280;57706;56.326;43.882;2022-10-20T07:34:17;100418.75;;;23.69;29.70
70302;BME280;57706;56.326;43.882;2022-10-20T07:37:03;100422.56;;;27.66;24.42
70302;BME280;57706;56.326;43.882;2022-10-20T07:39:29;100414.97;;;22.74;29.39
70302;BME280;57706;56.326;43.882;2022-10-20T07:41:54;100418.25;;;18.64;35.18
70302;BME280;57706;56.326;43.882;2022-10-20T07:44:20;100422.19;;;16.48;38.60
70302;BME280;57706;56.326;43.882;2022-10-20T07:46:46;100426.13;;;14.46;42.43
70302;BME280;57706;56.326;43.882;2022-10-20T07:49:12;100425.28;;;12.72;45.36
70302;BME280;57706;56.326;43.882;2022-10-20T07:51:38;100423.41;;;11.04;48.03
70302;BME280;57706;56.326;43.882;2022-10-20T07:54:05;100426.31;;;10.16;50.58
70302;BME280;57706;56.326;43.882;2022-10-20T07:56:35;100432.69;;;9.71;52.24
70302;BME280;57706;56.326;43.882;2022-10-20T07:59:02;100424.34;;;9.49;53.16
70302;BME280;57706;56.326;43.882;2022-10-20T08:01:29;100435.84;;;9.03;55.25
70302;BME280;57706;56.326;43.882;2022-10-20T08:03:55;100434.09;;;9.12;54.69
70302;BME280;57706;56.326;43.882;2022-10-20T08:06:21;100435.13;;;9.19;54.72
70302;BME280;57706;56.326;43.882;2022-10-20T08:08:47;100430.41;;;9.23;54.64
70302;BME280;57706;56.326;43.882;2022-10-20T08:11:13;100424.88;;;9.26;54.61
70302;BME280;57706;56.326;43.882;2022-10-20T08:13:39;100428.16;;;9.28;54.70
70302;BME280;57706;56.326;43.882;2022-10-20T08:16:07;100430.84;;;9.36;54.92
70302;BME280;57706;56.326;43.882;2022-10-20T08:18:33;100429.25;;;9.44;54.82
70302;BME280;57706;56.326;43.882;2022-10-20T08:21:13;100436.09;;;9.36;54.97
70302;BME280;57706;56.326;43.882;2022-10-20T08:23:41;100435.97;;;9.20;55.10
70302;BME280;57706;56.326;43.882;2022-10-20T08:26:08;100427.56;;;9.34;55.31
70302;BME280;57706;56.326;43.882;2022-10-20T08:28:34;100440.16;;;9.57;54.70
70302;BME280;57706;56.326;43.882;2022-10-20T08:31:04;100437.94;;;9.71;53.92
70302;BME280;57706;56.326;43.882;2022-10-20T08:33:49;100440.25;;;9.74;53.20
70302;BME280;57706;56.326;43.882;2022-10-20T08:36:15;100430.16;;;9.87;53.21
70302;BME280;57706;56.326;43.882;2022-10-20T08:38:41;100439.09;;;10.03;52.26
70302;BME280;57706;56.326;43.882;2022-10-20T08:41:16;100443.34;;;10.04;52.05
70302;BME280;57706;56.326;43.882;2022-10-20T08:43:44;100441.00;;;9.93;52.60
70302;BME280;57706;56.326;43.882;2022-10-20T08:46:16;100438.31;;;9.76;53.03
70302;BME280;57706;56.326;43.882;2022-10-20T08:48:43;100440.47;;;9.54;54.06
70302;BME280;57706;56.326;43.882;2022-10-20T08:51:42;100435.59;;;9.59;54.20
70302;BME280;57706;56.326;43.882;2022-10-20T08:54:27;100446.38;;;9.56;53.30
70302;BME280;57706;56.326;43.882;2022-10-20T08:56:53;100441.25;;;9.46;53.54
70302;BME280;57706;56.326;43.882;2022-10-20T09:01:47;100443.63;;;8.95;54.69
70302;BME280;57706;56.326;43.882;2022-10-20T09:04:20;100439.63;;;9.27;53.96
70302;BME280;57706;56.326;43.882;2022-10-20T09:06:51;100439.84;;;9.16;53.69
70302;BME280;57706;56.326;43.882;2022-10-20T09:09:36;100446.81;;;9.25;52.81
70302;BME280;57706;56.326;43.882;2022-10-20T09:12:05;100448.53;;;9.34;52.51
70302;BME280;57706;56.326;43.882;2022-10-20T09:14:34;100450.47;;;9.32;52.67
70302;BME280;57706;56.326;43.882;2022-10-20T09:17:01;100446.25;;;8.95;52.97
70302;BME280;57706;56.326;43.882;2022-10-20T09:19:27;100454.72;;;9.07;53.06
70302;BME280;57706;56.326;43.882;2022-10-20T09:21:56;100460.47;;;8.92;52.88
70302;BME280;57706;56.326;43.882;2022-10-20T09:24:24;100459.16;;;8.88;52.48
70302;BME280;57706;56.326;43.882;2022-10-20T09:26:54;100456.88;;;8.93;52.05
70302;BME280;57706;56.326;43.882;2022-10-20T09:29:22;100450.22;;;8.99;52.00
70302;BME280;57706;56.326;43.882;2022-10-20T09:31:58;100454.25;;;9.12;51.55
70302;BME280;57706;56.326;43.882;2022-10-20T09:34:34;100456.28;;;9.18;50.83
70302;BME280;57706;56.326;43.882;2022-10-20T09:39:55;100450.78;;;9.82;49.49
70302;BME280;57706;56.326;43.882;2022-10-20T09:42:26;100459.03;;;9.87;49.54
70302;BME280;57706;56.326;43.882;2022-10-20T09:44:57;100453.69;;;9.71;49.88
70302;BME280;57706;56.326;43.882;2022-10-20T09:47:25;100448.44;;;9.71;49.74
70302;BME280;57706;56.326;43.882;2022-10-20T09:50:04;100450.81;;;9.90;48.81
70302;BME280;57706;56.326;43.882;2022-10-20T09:52:34;100455.56;;;10.22;48.90
70302;BME280;57706;56.326;43.882;2022-10-20T09:55:50;100457.28;;;9.96;48.73
70302;BME280;57706;56.326;43.882;2022-10-20T09:57:59;100458.31;;;9.50;49.81
70302;BME280;57706;56.326;43.882;2022-10-20T10:00:45;100460.69;;;9.17;50.44
70302;BME280;57706;56.326;43.882;2022-10-20T10:03:21;100453.81;;;8.80;51.50
70302;BME280;57706;56.326;43.882;2022-10-20T10:08:19;100453.44;;;8.93;51.89
70302;BME280;57706;56.326;43.882;2022-10-20T10:11:13;100451.84;;;9.00;51.86
70302;BME280;57706;56.326;43.882;2022-10-20T10:13:45;100458.25;;;8.98;52.00
70302;BME280;57706;56.326;43.882;2022-10-20T10:16:15;100458.63;;;8.85;52.13
70302;BME280;57706;56.326;43.882;2022-10-20T10:18:52;100450.28;;;8.71;52.62
70302;BME280;57706;56.326;43.882;2022-10-20T10:21:19;100451.25;;;8.70;52.71
70302;BME280;57706;56.326;43.882;2022-10-20T10:23:57;100451.94;;;8.44;52.47
70302;BME280;57706;56.326;43.882;2022-10-20T10:26:46;100458.22;;;8.33;53.09
70302;BME280;57706;56.326;43.882;2022-10-20T10:29:33;100467.72;;;8.34;53.21
70302;BME280;57706;56.326;43.882;2022-10-20T10:34:36;100467.84;;;8.05;54.09
70302;BME280;57706;56.326;43.882;2022-10-20T10:37:03;100460.19;;;7.93;54.47
70302;BME280;57706;56.326;43.882;2022-10-20T10:39:33;100463.47;;;7.95;54.26
70302;BME280;57706;56.326;43.882;2022-10-20T10:44:53;100461.13;;;7.92;54.56
70302;BME280;57706;56.326;43.882;2022-10-20T10:53:18;100460.28;;;8.02;54.43
70302;BME280;57706;56.326;43.882;2022-10-20T11:12:27;100474.56;;;7.69;53.86
70302;BME280;57706;56.326;43.882;2022-10-20T11:18:11;100468.63;;;7.67;53.95
70302;BME280;57706;56.326;43.882;2022-10-20T11:26:13;100484.50;;;7.56;54.77
70302;BME280;57706;56.326;43.882;2022-10-20T11:28:46;100481.22;;;7.34;54.99
70302;BME280;57706;56.326;43.882;2022-10-20T11:34:09;100483.31;;;7.30;55.98
70302;BME280;57706;56.326;43.882;2022-10-20T11:37:10;100477.38;;;7.38;55.78
70302;BME280;57706;56.326;43.882;2022-10-20T11:44:46;100491.69;;;7.24;56.09
70302;BME280;57706;56.326;43.882;2022-10-20T11:47:16;100495.53;;;7.30;56.07
70302;BME280;57706;56.326;43.882;2022-10-20T11:49:44;100493.34;;;7.06;56.89
70302;BME280;57706;56.326;43.882;2022-10-20T11:58:16;100493.88;;;7.09;56.39
70302;BME280;57706;56.326;43.882;2022-10-20T12:06:32;100510.81;;;7.05;56.73
70302;BME280;57706;56.326;43.882;2022-10-20T12:14:26;100523.84;;;6.85;57.30
70302;BME280;57706;56.326;43.882;2022-10-20T12:19:41;100516.69;;;6.87;57.52
70302;BME280;57706;56.326;43.882;2022-10-20T12:24:39;100517.50;;;6.78;58.06
70302;BME280;57706;56.326;43.882;2022-10-20T12:37:42;100514.84;;;6.58;58.27
70302;BME280;57706;56.326;43.882;2022-10-20T12:42:59;100518.53;;;6.46;56.59
70302;BME280;57706;56.326;43.882;2022-10-20T12:45:34;100514.22;;;6.35;57.33
70302;BME280;57706;56.326;43.882;2022-10-20T12:48:02;100519.66;;;6.53;56.84
70302;BME280;57706;56.326;43.882;2022-10-20T12:53:17;100526.19;;;6.38;57.20
70302;BME280;57706;56.326;43.882;2022-10-20T12:55:52;100524.19;;;6.20;57.02
70302;BME280;57706;56.326;43.882;2022-10-20T13:03:42;100531.88;;;5.79;58.29
70302;BME280;57706;56.326;43.882;2022-10-20T13:17:22;100546.00;;;5.76;58.96
70302;BME280;57706;56.326;43.882;2022-10-20T13:20:00;100556.59;;;5.75;58.86
70302;BME280;57706;56.326;43.882;2022-10-20T13:25:02;100563.38;;;5.66;59.11
70302;BME280;57706;56.326;43.882;2022-10-20T13:27:29;100562.00;;;5.62;58.81
70302;BME280;57706;56.326;43.882;2022-10-20T13:29:55;100566.25;;;5.63;58.72
70302;BME280;57706;56.326;43.882;2022-10-20T13:32:30;100561.84;;;5.63;58.38
70302;BME280;57706;56.326;43.882;2022-10-20T13:40:37;100568.34;;;5.48;58.58
70302;BME280;57706;56.326;43.882;2022-10-20T13:51:03;100580.59;;;5.24;59.13
70302;BME280;57706;56.326;43.882;2022-10-20T13:53:35;100580.84;;;5.21;58.98
70302;BME280;57706;56.326;43.882;2022-10-20T13:59:03;100585.38;;;5.19;59.36
70302;BME280;57706;56.326;43.882;2022-10-20T14:01:29;100585.63;;;5.05;59.19
70302;BME280;57706;56.326;43.882;2022-10-20T14:03:55;100582.53;;;5.00;59.12
70302;BME280;57706;56.326;43.882;2022-10-20T14:08:58;100582.31;;;5.03;59.47
70302;BME280;57706;56.326;43.882;2022-10-20T14:11:28;100583.25;;;5.02;59.20
70302;BME280;57706;56.326;43.882;2022-10-20T14:13:56;100579.00;;;5.01;58.88
70302;BME280;57706;56.326;43.882;2022-10-20T14:16:25;100582.81;;;4.96;59.69
70302;BME280;57706;56.326;43.882;2022-10-20T14:21:41;100576.84;;;5.06;59.38
70302;BME280;57706;56.326;43.882;2022-10-20T14:24:14;100577.69;;;5.06;58.99
70302;BME280;57706;56.326;43.882;2022-10-20T14:26:42;100575.69;;;4.99;59.26
70302;BME280;57706;56.326;43.882;2022-10-20T14:29:11;100579.84;;;5.01;59.19
70302;BME280;57706;56.326;43.882;2022-10-20T14:31:39;100576.75;;;4.96;59.75
70302;BME280;57706;56.326;43.882;2022-10-20T14:34:05;100575.22;;;5.05;59.70
70302;BME280;57706;56.326;43.882;2022-10-20T14:36:41;100572.38;;;4.96;59.81
70302;BME280;57706;56.326;43.882;2022-10-20T14:39:39;100577.34;;;5.00;59.99
70302;BME280;57706;56.326;43.882;2022-10-20T14:42:21;100576.84;;;5.06;59.96
70302;BME280;57706;56.326;43.882;2022-10-20T14:44:49;100580.09;;;4.87;60.53
70302;BME280;57706;56.326;43.882;2022-10-20T14:47:16;100582.09;;;4.94;59.96
70302;BME280;57706;56.326;43.882;2022-10-20T14:49:47;100584.22;;;4.89;60.38
70302;BME280;57706;56.326;43.882;2022-10-20T14:54:45;100586.34;;;4.95;60.64
70302;BME280;57706;56.326;43.882;2022-10-20T15:00:01;100584.34;;;4.99;60.24
70302;BME280;57706;56.326;43.882;2022-10-20T15:02:46;100584.94;;;4.91;60.33
70302;BME280;57706;56.326;43.882;2022-10-20T15:07:55;100582.34;;;4.80;60.83
70302;BME280;57706;56.326;43.882;2022-10-20T15:10:24;100581.41;;;4.81;60.48
70302;BME280;57706;56.326;43.882;2022-10-20T15:12:52;100583.31;;;4.79;61.06
70302;BME280;57706;56.326;43.882;2022-10-20T15:15:35;100576.88;;;4.83;61.06
70302;BME280;57706;56.326;43.882;2022-10-20T15:23:16;100581.63;;;4.89;60.63
70302;BME280;57706;56.326;43.882;2022-10-20T15:25:52;100589.66;;;4.98;60.29
70302;BME280;57706;56.326;43.882;2022-10-20T15:28:24;100587.53;;;4.91;60.57
70302;BME280;57706;56.326;43.882;2022-10-20T15:30:50;100591.34;;;4.87;60.77
70302;BME280;57706;56.326;43.882;2022-10-20T15:33:16;100581.50;;;4.79;60.86
70302;BME280;57706;56.326;43.882;2022-10-20T15:35:42;100589.69;;;4.75;60.84
70302;BME280;57706;56.326;43.882;2022-10-20T15:38:12;100588.75;;;4.64;60.98
70302;BME280;57706;56.326;43.882;2022-10-20T15:40:38;100588.75;;;4.64;60.94
70302;BME280;57706;56.326;43.882;2022-10-20T15:43:04;100588.88;;;4.51;61.59
70302;BME280;57706;56.326;43.882;2022-10-20T15:45:53;100591.09;;;4.33;61.87
70302;BME280;57706;56.326;43.882;2022-10-20T15:48:22;100586.47;;;4.25;62.32